sensor_id;sensor_type;location;lat;lon;timestamp;pressure;altitude;pressure_sealevel;temperature;humidity
53262;BME280;39658;51.090;-1.786;2022-08-02T00:01:41;101076.31;;;18.99;78.67
53262;BME280;39658;51.090;-1.786;2022-08-02T00:04:09;101076.25;;;18.86;79.14
53262;BME280;39658;51.090;-1.786;2022-08-02T00:06:36;101073.00;;;18.97;78.58
53262;BME280;39658;51.090;-1.786;2022-08-02T00:09:04;101071.09;;;18.91;78.96
53262;BME280;39658;51.090;-1.786;2022-08-02T00:11:31;101068.56;;;18.83;79.61
53262;BME280;39658;51.090;-1.786;2022-08-02T00:13:58;101070.56;;;18.74;79.84
53262;BME280;39658;51.090;-1.786;2022-08-02T00:16:26;101059.47;;;18.90;79.81
53262;BME280;39658;51.090;-1.786;2022-08-02T00:18:53;101055.94;;;18.90;79.80
53262;BME280;39658;51.090;-1.786;2022-08-02T00:21:20;101054.09;;;18.90;79.51
53262;BME280;39658;51.090;-1.786;2022-08-02T00:23:47;101057.28;;;18.72;80.77
53262;BME280;39658;51.090;-1.786;2022-08-02T00:26:14;101054.91;;;18.56;82.92
53262;BME280;39658;51.090;-1.786;2022-08-02T00:28:40;101046.75;;;18.43;83.99
53262;BME280;39658;51.090;-1.786;2022-08-02T00:31:07;101049.34;;;18.30;84.26
53262;BME280;39658;51.090;-1.786;2022-08-02T00:33:35;101044.94;;;18.22;85.25
53262;BME280;39658;51.090;-1.786;2022-08-02T00:36:02;101044.25;;;18.13;86.52
53262;BME280;39658;51.090;-1.786;2022-08-02T00:38:29;101037.97;;;18.34;87.46
53262;BME280;39658;51.090;-1.786;2022-08-02T00:40:56;101039.00;;;18.33;86.18
53262;BME280;39658;51.090;-1.786;2022-08-02T00:43:23;101034.44;;;18.34;86.48
53262;BME280;39658;51.090;-1.786;2022-08-02T00:45:50;101037.53;;;18.31;86.20
53262;BME280;39658;51.090;-1.786;2022-08-02T00:48:16;101038.75;;;18.28;86.35
53262;BME280;39658;51.090;-1.786;2022-08-02T00:50:45;101035.28;;;18.34;86.95
53262;BME280;39658;51.090;-1.786;2022-08-02T00:53:11;101035.22;;;18.28;86.50
53262;BME280;39658;51.090;-1.786;2022-08-02T00:55:38;101021.13;;;18.26;87.16
53262;BME280;39658;51.090;-1.786;2022-08-02T00:58:05;101030.28;;;18.31;87.05
53262;BME280;39658;51.090;-1.786;2022-08-02T01:00:32;101023.81;;;18.26;86.88
53262;BME280;39658;51.090;-1.786;2022-08-02T01:02:59;101023.22;;;18.30;86.28
53262;BME280;39658;51.090;-1.786;2022-08-02T01:05:26;101028.41;;;18.32;86.57
53262;BME280;39658;51.090;-1.786;2022-08-02T01:07:54;101026.34;;;18.34;86.25
53262;BME280;39658;51.090;-1.786;2022-08-02T01:10:20;101025.97;;;18.37;86.13
53262;BME280;39658;51.090;-1.786;2022-08-02T01:12:47;101028.63;;;18.30;86.34
53262;BME280;39658;51.090;-1.786;2022-08-02T01:15:16;101027.78;;;18.30;86.81
53262;BME280;39658;51.090;-1.786;2022-08-02T01:17:47;101027.00;;;18.36;86.35
53262;BME280;39658;51.090;-1.786;2022-08-02T01:20:27;101026.94;;;18.29;86.51
53262;BME280;39658;51.090;-1.786;2022-08-02T01:23:12;101020.69;;;18.22;86.94
53262;BME280;39658;51.090;-1.786;2022-08-02T01:26:00;101027.69;;;18.16;87.00
53262;BME280;39658;51.090;-1.786;2022-08-02T01:28:36;101033.28;;;18.15;87.43
53262;BME280;39658;51.090;-1.786;2022-08-02T01:31:13;101023.53;;;18.14;87.71
53262;BME280;39658;51.090;-1.786;2022-08-02T01:33:55;101020.03;;;18.13;87.52
53262;BME280;39658;51.090;-1.786;2022-08-02T01:36:23;101027.66;;;18.10;87.90
53262;BME280;39658;51.090;-1.786;2022-08-02T01:38:53;101023.44;;;18.01;88.14
53262;BME280;39658;51.090;-1.786;2022-08-02T01:41:23;101023.25;;;18.02;88.31
53262;BME280;39658;51.090;-1.786;2022-08-02T01:43:57;101022.44;;;18.02;88.28
53262;BME280;39658;51.090;-1.786;2022-08-02T01:46:26;101020.50;;;17.96;88.64
53262;BME280;39658;51.090;-1.786;2022-08-02T01:48:57;101025.13;;;18.02;88.59
53262;BME280;39658;51.090;-1.786;2022-08-02T01:51:26;101009.19;;;18.07;88.38
53262;BME280;39658;51.090;-1.786;2022-08-02T01:54:14;101006.31;;;18.08;87.96
53262;BME280;39658;51.090;-1.786;2022-08-02T01:56:43;101012.34;;;18.10;88.08
53262;BME280;39658;51.090;-1.786;2022-08-02T01:59:16;101006.13;;;18.10;88.26
53262;BME280;39658;51.090;-1.786;2022-08-02T02:01:44;101009.53;;;17.97;89.10
53262;BME280;39658;51.090;-1.786;2022-08-02T02:04:14;101013.50;;;18.01;88.81
53262;BME280;39658;51.090;-1.786;2022-08-02T02:06:43;100995.19;;;17.90;89.87
53262;BME280;39658;51.090;-1.786;2022-08-02T02:09:11;100991.22;;;17.86;89.70
53262;BME280;39658;51.090;-1.786;2022-08-02T02:11:40;100994.09;;;17.84;89.87
53262;BME280;39658;51.090;-1.786;2022-08-02T02:14:11;100982.94;;;17.88;90.07
53262;BME280;39658;51.090;-1.786;2022-08-02T02:16:41;100986.88;;;17.85;90.48
53262;BME280;39658;51.090;-1.786;2022-08-02T02:19:11;100982.13;;;17.87;90.59
53262;BME280;39658;51.090;-1.786;2022-08-02T02:21:40;100987.75;;;17.92;90.24
53262;BME280;39658;51.090;-1.786;2022-08-02T02:24:07;100987.41;;;18.02;89.65
53262;BME280;39658;51.090;-1.786;2022-08-02T02:26:35;100982.78;;;17.96;90.28
53262;BME280;39658;51.090;-1.786;2022-08-02T02:29:04;100992.25;;;18.13;89.22
53262;BME280;39658;51.090;-1.786;2022-08-02T02:31:37;100981.03;;;18.09;89.66
53262;BME280;39658;51.090;-1.786;2022-08-02T02:34:07;100984.53;;;18.03;89.70
53262;BME280;39658;51.090;-1.786;2022-08-02T02:36:36;100981.72;;;18.18;89.32
53262;BME280;39658;51.090;-1.786;2022-08-02T02:39:06;100986.66;;;18.14;89.43
53262;BME280;39658;51.090;-1.786;2022-08-02T02:41:36;100977.34;;;18.17;88.95
53262;BME280;39658;51.090;-1.786;2022-08-02T02:44:05;100979.50;;;18.28;88.39
53262;BME280;39658;51.090;-1.786;2022-08-02T02:46:37;100982.81;;;18.30;88.47
53262;BME280;39658;51.090;-1.786;2022-08-02T02:49:03;100967.44;;;18.24;88.60
53262;BME280;39658;51.090;-1.786;2022-08-02T02:51:31;100965.94;;;18.15;88.61
53262;BME280;39658;51.090;-1.786;2022-08-02T02:53:59;100976.06;;;18.06;88.76
53262;BME280;39658;51.090;-1.786;2022-08-02T02:56:26;100968.28;;;17.97;89.39
53262;BME280;39658;51.090;-1.786;2022-08-02T02:58:53;100967.91;;;18.00;89.58
53262;BME280;39658;51.090;-1.786;2022-08-02T03:01:20;100962.88;;;17.90;90.18
53262;BME280;39658;51.090;-1.786;2022-08-02T03:03:56;100967.91;;;18.00;89.48
53262;BME280;39658;51.090;-1.786;2022-08-02T03:06:23;100956.69;;;17.96;89.75
53262;BME280;39658;51.090;-1.786;2022-08-02T03:08:50;100967.19;;;17.84;90.38
53262;BME280;39658;51.090;-1.786;2022-08-02T03:11:17;100962.97;;;17.75;90.80
53262;BME280;39658;51.090;-1.786;2022-08-02T03:13:44;100961.56;;;17.79;90.27
53262;BME280;39658;51.090;-1.786;2022-08-02T03:16:11;100969.84;;;17.78;90.63
53262;BME280;39658;51.090;-1.786;2022-08-02T03:18:40;100964.25;;;17.79;90.42
53262;BME280;39658;51.090;-1.786;2022-08-02T03:21:11;100958.88;;;17.79;90.26
53262;BME280;39658;51.090;-1.786;2022-08-02T03:23:39;100960.47;;;17.74;90.48
53262;BME280;39658;51.090;-1.786;2022-08-02T03:26:07;100960.72;;;17.79;90.02
53262;BME280;39658;51.090;-1.786;2022-08-02T03:28:34;100960.97;;;17.84;89.96
53262;BME280;39658;51.090;-1.786;2022-08-02T03:31:01;100960.28;;;17.75;90.45
53262;BME280;39658;51.090;-1.786;2022-08-02T03:33:28;100965.47;;;17.77;90.07
53262;BME280;39658;51.090;-1.786;2022-08-02T03:35:58;100958.22;;;17.77;90.10
53262;BME280;39658;51.090;-1.786;2022-08-02T03:38:29;100951.78;;;17.72;90.38
53262;BME280;39658;51.090;-1.786;2022-08-02T03:40:58;100960.69;;;17.72;90.88
53262;BME280;39658;51.090;-1.786;2022-08-02T03:43:26;100952.53;;;17.66;90.93
53262;BME280;39658;51.090;-1.786;2022-08-02T03:45:54;100950.50;;;17.68;90.74
53262;BME280;39658;51.090;-1.786;2022-08-02T03:48:22;100948.25;;;17.71;90.60
53262;BME280;39658;51.090;-1.786;2022-08-02T03:50:49;100945.81;;;17.76;91.05
53262;BME280;39658;51.090;-1.786;2022-08-02T03:53:17;100951.13;;;17.70;90.93
53262;BME280;39658;51.090;-1.786;2022-08-02T03:55:46;100955.22;;;17.66;91.23
53262;BME280;39658;51.090;-1.786;2022-08-02T03:58:17;100957.34;;;17.70;91.24
53262;BME280;39658;51.090;-1.786;2022-08-02T04:00:44;100962.16;;;17.75;91.11
53262;BME280;39658;51.090;-1.786;2022-08-02T04:03:11;100966.47;;;17.69;91.25
53262;BME280;39658;51.090;-1.786;2022-08-02T04:05:38;100960.28;;;17.75;91.07
53262;BME280;39658;51.090;-1.786;2022-08-02T04:08:05;100961.31;;;17.74;91.28
53262;BME280;39658;51.090;-1.786;2022-08-02T04:10:32;100964.44;;;17.78;90.96
53262;BME280;39658;51.090;-1.786;2022-08-02T04:13:25;100950.41;;;17.82;90.82
53262;BME280;39658;51.090;-1.786;2022-08-02T04:15:56;100946.63;;;17.77;91.39
53262;BME280;39658;51.090;-1.786;2022-08-02T04:18:29;100955.59;;;17.84;91.21
53262;BME280;39658;51.090;-1.786;2022-08-02T04:20:59;100953.31;;;17.88;90.71
53262;BME280;39658;51.090;-1.786;2022-08-02T04:23:28;100943.59;;;17.87;90.96
53262;BME280;39658;51.090;-1.786;2022-08-02T04:25:57;100954.72;;;17.77;91.21
53262;BME280;39658;51.090;-1.786;2022-08-02T04:28:26;100952.03;;;17.77;91.44
53262;BME280;39658;51.090;-1.786;2022-08-02T04:30:55;100956.75;;;17.75;91.38
53262;BME280;39658;51.090;-1.786;2022-08-02T04:33:23;100962.34;;;17.73;92.04
53262;BME280;39658;51.090;-1.786;2022-08-02T04:35:50;100950.41;;;17.82;91.19
53262;BME280;39658;51.090;-1.786;2022-08-02T04:38:17;100957.19;;;17.78;91.61
53262;BME280;39658;51.090;-1.786;2022-08-02T04:40:51;100954.78;;;17.90;91.25
53262;BME280;39658;51.090;-1.786;2022-08-02T04:43:19;100955.09;;;18.02;90.72
53262;BME280;39658;51.090;-1.786;2022-08-02T04:45:49;100958.22;;;18.05;90.23
53262;BME280;39658;51.090;-1.786;2022-08-02T04:48:17;100952.53;;;18.22;89.84
53262;BME280;39658;51.090;-1.786;2022-08-02T04:50:43;100956.03;;;18.22;89.87
53262;BME280;39658;51.090;-1.786;2022-08-02T04:53:10;100956.06;;;18.29;89.19
53262;BME280;39658;51.090;-1.786;2022-08-02T04:55:37;100949.03;;;18.28;89.52
53262;BME280;39658;51.090;-1.786;2022-08-02T04:58:04;100956.94;;;18.36;88.68
53262;BME280;39658;51.090;-1.786;2022-08-02T05:00:30;100961.97;;;18.45;88.32
53262;BME280;39658;51.090;-1.786;2022-08-02T05:02:59;100956.22;;;18.55;88.10
53262;BME280;39658;51.090;-1.786;2022-08-02T05:05:26;100958.66;;;18.43;88.63
53262;BME280;39658;51.090;-1.786;2022-08-02T05:07:53;100962.63;;;18.47;88.30
53262;BME280;39658;51.090;-1.786;2022-08-02T05:10:20;100958.41;;;18.38;88.81
53262;BME280;39658;51.090;-1.786;2022-08-02T05:12:47;100954.78;;;18.59;87.59
53262;BME280;39658;51.090;-1.786;2022-08-02T05:15:14;100970.75;;;18.61;87.94
53262;BME280;39658;51.090;-1.786;2022-08-02T05:17:43;100965.00;;;18.70;87.33
53262;BME280;39658;51.090;-1.786;2022-08-02T05:20:12;100965.63;;;18.66;87.59
53262;BME280;39658;51.090;-1.786;2022-08-02T05:22:39;100962.50;;;18.69;87.40
53262;BME280;39658;51.090;-1.786;2022-08-02T05:25:07;100973.53;;;18.81;87.39
53262;BME280;39658;51.090;-1.786;2022-08-02T05:27:34;100972.97;;;18.85;87.20
53262;BME280;39658;51.090;-1.786;2022-08-02T05:30:02;100971.66;;;18.74;87.05
53262;BME280;39658;51.090;-1.786;2022-08-02T05:32:28;100975.78;;;18.64;87.39
53262;BME280;39658;51.090;-1.786;2022-08-02T05:34:55;100979.94;;;18.66;87.91
53262;BME280;39658;51.090;-1.786;2022-08-02T05:37:23;100970.56;;;18.62;87.86
53262;BME280;39658;51.090;-1.786;2022-08-02T05:39:50;100970.94;;;18.59;87.74
53262;BME280;39658;51.090;-1.786;2022-08-02T05:42:17;100961.69;;;18.68;87.14
53262;BME280;39658;51.090;-1.786;2022-08-02T05:44:44;100970.81;;;18.74;86.96
53262;BME280;39658;51.090;-1.786;2022-08-02T05:47:10;100970.81;;;18.74;87.30
53262;BME280;39658;51.090;-1.786;2022-08-02T05:49:37;100961.91;;;18.73;87.33
53262;BME280;39658;51.090;-1.786;2022-08-02T05:52:09;100975.22;;;18.82;86.45
53262;BME280;39658;51.090;-1.786;2022-08-02T05:54:47;100971.66;;;18.74;87.03
53262;BME280;39658;51.090;-1.786;2022-08-02T05:57:25;100971.31;;;18.84;86.79
53262;BME280;39658;51.090;-1.786;2022-08-02T06:00:03;100966.69;;;18.78;86.73
53262;BME280;39658;51.090;-1.786;2022-08-02T06:02:41;100965.31;;;19.02;86.26
53262;BME280;39658;51.090;-1.786;2022-08-02T06:05:11;100961.59;;;19.16;85.39
53262;BME280;39658;51.090;-1.786;2022-08-02T06:07:40;100956.63;;;19.20;84.85
53262;BME280;39658;51.090;-1.786;2022-08-02T06:10:10;100957.44;;;19.00;85.93
53262;BME280;39658;51.090;-1.786;2022-08-02T06:12:42;100950.38;;;18.99;85.63
53262;BME280;39658;51.090;-1.786;2022-08-02T06:15:13;100955.38;;;19.02;85.66
53262;BME280;39658;51.090;-1.786;2022-08-02T06:17:41;100951.28;;;19.26;84.98
53262;BME280;39658;51.090;-1.786;2022-08-02T06:20:10;100957.13;;;19.69;83.24
53262;BME280;39658;51.090;-1.786;2022-08-02T06:22:40;100961.47;;;19.84;82.39
53262;BME280;39658;51.090;-1.786;2022-08-02T06:25:09;100943.78;;;20.08;81.05
53262;BME280;39658;51.090;-1.786;2022-08-02T06:27:37;100951.03;;;20.85;78.20
53262;BME280;39658;51.090;-1.786;2022-08-02T06:30:06;100953.47;;;21.56;74.97
53262;BME280;39658;51.090;-1.786;2022-08-02T06:32:33;100948.03;;;23.51;67.41
53262;BME280;39658;51.090;-1.786;2022-08-02T06:35:00;100951.78;;;23.26;67.88
53262;BME280;39658;51.090;-1.786;2022-08-02T06:37:35;100955.00;;;23.05;68.63
53262;BME280;39658;51.090;-1.786;2022-08-02T06:40:07;100947.25;;;22.24;71.54
53262;BME280;39658;51.090;-1.786;2022-08-02T06:42:43;100939.13;;;22.05;72.18
53262;BME280;39658;51.090;-1.786;2022-08-02T06:45:13;100944.16;;;22.57;70.09
53262;BME280;39658;51.090;-1.786;2022-08-02T06:47:40;100948.75;;;22.19;71.41
53262;BME280;39658;51.090;-1.786;2022-08-02T06:50:07;100946.31;;;22.66;70.03
53262;BME280;39658;51.090;-1.786;2022-08-02T06:52:35;100940.78;;;24.61;64.26
53262;BME280;39658;51.090;-1.786;2022-08-02T06:55:03;100947.47;;;25.11;61.24
53262;BME280;39658;51.090;-1.786;2022-08-02T06:57:31;100940.31;;;24.93;60.77
53262;BME280;39658;51.090;-1.786;2022-08-02T07:00:00;100947.66;;;24.64;62.01
53262;BME280;39658;51.090;-1.786;2022-08-02T07:02:29;100958.22;;;24.89;60.59
53262;BME280;39658;51.090;-1.786;2022-08-02T07:04:56;100943.84;;;26.66;55.83
53262;BME280;39658;51.090;-1.786;2022-08-02T07:07:23;100951.19;;;25.83;57.53
53262;BME280;39658;51.090;-1.786;2022-08-02T07:09:50;100961.09;;;24.71;61.63
53262;BME280;39658;51.090;-1.786;2022-08-02T07:12:17;100963.56;;;23.85;64.18
53262;BME280;39658;51.090;-1.786;2022-08-02T07:14:44;100950.97;;;23.49;65.96
53262;BME280;39658;51.090;-1.786;2022-08-02T07:17:12;100955.88;;;22.69;68.41
53262;BME280;39658;51.090;-1.786;2022-08-02T07:19:39;100966.16;;;22.12;70.83
53262;BME280;39658;51.090;-1.786;2022-08-02T07:22:06;100958.91;;;22.06;71.71
53262;BME280;39658;51.090;-1.786;2022-08-02T07:24:33;100966.53;;;21.66;73.95
53262;BME280;39658;51.090;-1.786;2022-08-02T07:27:00;100964.84;;;21.89;72.48
53262;BME280;39658;51.090;-1.786;2022-08-02T07:29:27;100964.38;;;21.74;72.91
53262;BME280;39658;51.090;-1.786;2022-08-02T07:31:53;100954.31;;;21.56;73.98
53262;BME280;39658;51.090;-1.786;2022-08-02T07:34:22;100959.78;;;21.50;74.16
53262;BME280;39658;51.090;-1.786;2022-08-02T07:36:49;100965.00;;;21.76;73.06
53262;BME280;39658;51.090;-1.786;2022-08-02T07:39:15;100958.69;;;22.26;72.06
53262;BME280;39658;51.090;-1.786;2022-08-02T07:41:42;100965.69;;;22.15;71.45
53262;BME280;39658;51.090;-1.786;2022-08-02T07:44:10;100961.03;;;22.22;70.98
53262;BME280;39658;51.090;-1.786;2022-08-02T07:46:37;100959.59;;;22.38;70.18
53262;BME280;39658;51.090;-1.786;2022-08-02T07:49:04;100957.16;;;22.66;69.45
53262;BME280;39658;51.090;-1.786;2022-08-02T07:51:32;100961.81;;;23.26;67.99
53262;BME280;39658;51.090;-1.786;2022-08-02T07:54:00;100964.69;;;23.42;66.40
53262;BME280;39658;51.090;-1.786;2022-08-02T07:56:26;100970.41;;;22.74;69.05
53262;BME280;39658;51.090;-1.786;2022-08-02T07:58:53;100973.50;;;22.78;69.60
53262;BME280;39658;51.090;-1.786;2022-08-02T08:01:20;100965.81;;;22.93;69.30
53262;BME280;39658;51.090;-1.786;2022-08-02T08:03:47;100964.06;;;22.99;68.79
53262;BME280;39658;51.090;-1.786;2022-08-02T08:06:14;100971.16;;;23.41;67.65
53262;BME280;39658;51.090;-1.786;2022-08-02T08:08:43;100968.38;;;23.60;67.39
53262;BME280;39658;51.090;-1.786;2022-08-02T08:11:10;100970.81;;;23.38;67.36
53262;BME280;39658;51.090;-1.786;2022-08-02T08:13:36;100964.84;;;23.18;68.57
53262;BME280;39658;51.090;-1.786;2022-08-02T08:16:04;100976.44;;;22.76;69.51
53262;BME280;39658;51.090;-1.786;2022-08-02T08:18:31;100973.84;;;22.88;69.11
53262;BME280;39658;51.090;-1.786;2022-08-02T08:20:58;100975.06;;;23.04;68.89
53262;BME280;39658;51.090;-1.786;2022-08-02T08:23:25;100980.63;;;23.09;68.46
53262;BME280;39658;51.090;-1.786;2022-08-02T08:25:53;100979.78;;;23.38;67.60
53262;BME280;39658;51.090;-1.786;2022-08-02T08:28:19;100980.72;;;23.32;67.24
53262;BME280;39658;51.090;-1.786;2022-08-02T08:30:46;100966.19;;;23.80;65.83
53262;BME280;39658;51.090;-1.786;2022-08-02T08:33:13;100976.81;;;24.17;64.50
53262;BME280;39658;51.090;-1.786;2022-08-02T08:35:40;100983.09;;;24.05;65.24
53262;BME280;39658;51.090;-1.786;2022-08-02T08:38:07;100982.84;;;24.07;64.50
53262;BME280;39658;51.090;-1.786;2022-08-02T08:40:34;100978.00;;;24.09;64.51
53262;BME280;39658;51.090;-1.786;2022-08-02T08:43:02;100977.38;;;24.54;63.25
53262;BME280;39658;51.090;-1.786;2022-08-02T08:45:29;100965.16;;;24.96;61.84
53262;BME280;39658;51.090;-1.786;2022-08-02T08:48:00;100973.72;;;25.17;61.50
53262;BME280;39658;51.090;-1.786;2022-08-02T08:50:29;100963.44;;;24.50;62.36
53262;BME280;39658;51.090;-1.786;2022-08-02T08:53:02;100961.97;;;24.99;61.82
53262;BME280;39658;51.090;-1.786;2022-08-02T08:55:30;100962.75;;;25.74;58.74
53262;BME280;39658;51.090;-1.786;2022-08-02T08:57:58;100958.72;;;25.14;60.17
53262;BME280;39658;51.090;-1.786;2022-08-02T09:00:29;100964.69;;;26.12;57.90
53262;BME280;39658;51.090;-1.786;2022-08-02T09:02:56;100965.69;;;25.55;58.88
53262;BME280;39658;51.090;-1.786;2022-08-02T09:05:23;100974.78;;;24.47;62.39
53262;BME280;39658;51.090;-1.786;2022-08-02T09:07:51;100961.09;;;24.71;62.11
53262;BME280;39658;51.090;-1.786;2022-08-02T09:10:33;100974.06;;;24.52;62.52
53262;BME280;39658;51.090;-1.786;2022-08-02T09:13:09;100972.78;;;24.19;63.40
53262;BME280;39658;51.090;-1.786;2022-08-02T09:15:39;100970.19;;;24.13;63.53
53262;BME280;39658;51.090;-1.786;2022-08-02T09:18:07;100971.00;;;24.01;64.42
53262;BME280;39658;51.090;-1.786;2022-08-02T09:20:39;100960.72;;;24.27;63.45
53262;BME280;39658;51.090;-1.786;2022-08-02T09:23:16;100967.84;;;24.04;63.91
53262;BME280;39658;51.090;-1.786;2022-08-02T09:25:54;100965.34;;;23.91;63.84
53262;BME280;39658;51.090;-1.786;2022-08-02T09:28:24;100965.72;;;23.71;64.52
53262;BME280;39658;51.090;-1.786;2022-08-02T09:30:55;100961.31;;;24.17;63.50
53262;BME280;39658;51.090;-1.786;2022-08-02T09:33:26;100970.06;;;23.72;64.47
53262;BME280;39658;51.090;-1.786;2022-08-02T09:36:03;100972.56;;;23.32;66.16
53262;BME280;39658;51.090;-1.786;2022-08-02T09:38:31;100963.97;;;23.35;66.58
53262;BME280;39658;51.090;-1.786;2022-08-02T09:40:59;100976.47;;;23.36;66.03
53262;BME280;39658;51.090;-1.786;2022-08-02T09:43:37;100981.22;;;23.53;66.24
53262;BME280;39658;51.090;-1.786;2022-08-02T09:46:13;100972.84;;;23.54;65.61
53262;BME280;39658;51.090;-1.786;2022-08-02T09:48:47;100968.66;;;23.93;64.04
53262;BME280;39658;51.090;-1.786;2022-08-02T09:51:16;100962.47;;;25.58;58.59
53262;BME280;39658;51.090;-1.786;2022-08-02T09:53:46;100967.50;;;26.17;57.34
53262;BME280;39658;51.090;-1.786;2022-08-02T09:56:13;100964.06;;;25.88;57.96
53262;BME280;39658;51.090;-1.786;2022-08-02T09:58:41;100968.38;;;26.61;55.56
53262;BME280;39658;51.090;-1.786;2022-08-02T10:01:08;100969.84;;;27.76;51.64
53262;BME280;39658;51.090;-1.786;2022-08-02T10:03:36;100975.28;;;28.66;50.79
53262;BME280;39658;51.090;-1.786;2022-08-02T10:06:03;100958.03;;;28.70;49.30
53262;BME280;39658;51.090;-1.786;2022-08-02T10:08:31;100957.19;;;28.55;49.55
53262;BME280;39658;51.090;-1.786;2022-08-02T10:10:58;100948.66;;;29.65;48.06
53262;BME280;39658;51.090;-1.786;2022-08-02T10:13:28;100959.78;;;28.92;48.81
53262;BME280;39658;51.090;-1.786;2022-08-02T10:15:56;100963.06;;;27.84;51.63
53262;BME280;39658;51.090;-1.786;2022-08-02T10:18:23;100960.59;;;28.25;51.53
53262;BME280;39658;51.090;-1.786;2022-08-02T10:20:54;100962.16;;;28.16;51.96
53262;BME280;39658;51.090;-1.786;2022-08-02T10:23:24;100961.50;;;27.02;54.63
53262;BME280;39658;51.090;-1.786;2022-08-02T10:25:53;100960.53;;;26.92;56.05
53262;BME280;39658;51.090;-1.786;2022-08-02T10:28:25;100960.56;;;26.48;56.72
53262;BME280;39658;51.090;-1.786;2022-08-02T10:30:54;100962.78;;;26.12;57.78
53262;BME280;39658;51.090;-1.786;2022-08-02T10:33:22;100968.25;;;25.45;59.66
53262;BME280;39658;51.090;-1.786;2022-08-02T10:35:53;100958.53;;;26.21;57.49
53262;BME280;39658;51.090;-1.786;2022-08-02T10:38:22;100962.41;;;26.64;57.01
53262;BME280;39658;51.090;-1.786;2022-08-02T10:40:50;100957.13;;;26.58;55.95
53262;BME280;39658;51.090;-1.786;2022-08-02T10:43:40;100954.19;;;26.86;54.93
53262;BME280;39658;51.090;-1.786;2022-08-02T10:46:30;100965.16;;;27.45;53.40
53262;BME280;39658;51.090;-1.786;2022-08-02T10:49:15;100964.38;;;27.50;53.17
53262;BME280;39658;51.090;-1.786;2022-08-02T10:52:11;100959.38;;;27.36;53.97
53262;BME280;39658;51.090;-1.786;2022-08-02T10:54:40;100961.94;;;26.94;55.91
53262;BME280;39658;51.090;-1.786;2022-08-02T10:57:15;100956.31;;;26.57;56.54
53262;BME280;39658;51.090;-1.786;2022-08-02T10:59:43;100964.88;;;26.88;55.50
53262;BME280;39658;51.090;-1.786;2022-08-02T11:02:10;100959.31;;;26.17;57.75
53262;BME280;39658;51.090;-1.786;2022-08-02T11:05:00;100963.09;;;26.16;57.27
53262;BME280;39658;51.090;-1.786;2022-08-02T11:07:35;100960.25;;;25.89;58.88
53262;BME280;39658;51.090;-1.786;2022-08-02T11:10:30;100958.78;;;25.65;59.44
53262;BME280;39658;51.090;-1.786;2022-08-02T11:12:59;100954.16;;;25.03;61.14
53262;BME280;39658;51.090;-1.786;2022-08-02T11:15:27;100962.31;;;25.03;61.35
53262;BME280;39658;51.090;-1.786;2022-08-02T11:17:55;100968.06;;;24.38;63.38
53262;BME280;39658;51.090;-1.786;2022-08-02T11:20:24;100967.34;;;24.43;63.89
53262;BME280;39658;51.090;-1.786;2022-08-02T11:22:54;100971.16;;;24.70;63.00
53262;BME280;39658;51.090;-1.786;2022-08-02T11:25:33;100973.00;;;24.41;64.15
53262;BME280;39658;51.090;-1.786;2022-08-02T11:28:08;100977.00;;;24.62;63.33
53262;BME280;39658;51.090;-1.786;2022-08-02T11:30:36;100982.88;;;24.71;62.84
53262;BME280;39658;51.090;-1.786;2022-08-02T11:33:03;100973.56;;;24.66;62.95
53262;BME280;39658;51.090;-1.786;2022-08-02T11:35:31;100970.56;;;24.04;64.68
53262;BME280;39658;51.090;-1.786;2022-08-02T11:38:12;100972.22;;;24.05;64.94
53262;BME280;39658;51.090;-1.786;2022-08-02T11:40:39;100972.78;;;23.96;65.36
53262;BME280;39658;51.090;-1.786;2022-08-02T11:43:16;100969.34;;;25.16;61.76
53262;BME280;39658;51.090;-1.786;2022-08-02T11:45:43;100967.41;;;25.45;60.29
53262;BME280;39658;51.090;-1.786;2022-08-02T11:48:10;100958.63;;;25.09;61.85
53262;BME280;39658;51.090;-1.786;2022-08-02T11:50:36;100959.78;;;25.13;61.12
53262;BME280;39658;51.090;-1.786;2022-08-02T11:53:13;100956.84;;;25.99;58.75
53262;BME280;39658;51.090;-1.786;2022-08-02T11:55:40;100958.53;;;26.21;57.80
53262;BME280;39658;51.090;-1.786;2022-08-02T11:58:08;100953.41;;;26.03;58.94
53262;BME280;39658;51.090;-1.786;2022-08-02T12:00:36;100955.13;;;25.92;58.62
53262;BME280;39658;51.090;-1.786;2022-08-02T12:03:03;100947.06;;;25.81;58.64
53262;BME280;39658;51.090;-1.786;2022-08-02T12:05:30;100962.97;;;25.55;59.92
53262;BME280;39658;51.090;-1.786;2022-08-02T12:07:57;100953.22;;;25.26;60.67
53262;BME280;39658;51.090;-1.786;2022-08-02T12:10:25;100960.53;;;24.97;61.85
53262;BME280;39658;51.090;-1.786;2022-08-02T12:12:53;100960.09;;;25.17;61.19
53262;BME280;39658;51.090;-1.786;2022-08-02T12:15:34;100952.19;;;24.87;62.12
53262;BME280;39658;51.090;-1.786;2022-08-02T12:18:03;100948.75;;;24.80;62.81
53262;BME280;39658;51.090;-1.786;2022-08-02T12:20:51;100954.22;;;24.40;63.80
53262;BME280;39658;51.090;-1.786;2022-08-02T12:23:18;100960.13;;;24.36;64.25
53262;BME280;39658;51.090;-1.786;2022-08-02T12:25:58;100948.88;;;24.56;63.54
53262;BME280;39658;51.090;-1.786;2022-08-02T12:28:25;100952.44;;;24.33;64.25
53262;BME280;39658;51.090;-1.786;2022-08-02T12:30:54;100956.22;;;24.44;64.19
53262;BME280;39658;51.090;-1.786;2022-08-02T12:33:23;100958.25;;;24.14;64.64
53262;BME280;39658;51.090;-1.786;2022-08-02T12:35:50;100960.59;;;24.22;64.66
53262;BME280;39658;51.090;-1.786;2022-08-02T12:38:17;100962.28;;;23.76;66.33
53262;BME280;39658;51.090;-1.786;2022-08-02T12:40:44;100954.66;;;23.55;67.10
53262;BME280;39658;51.090;-1.786;2022-08-02T12:43:22;100954.13;;;23.64;67.15
53262;BME280;39658;51.090;-1.786;2022-08-02T12:45:51;100950.94;;;23.91;66.38
53262;BME280;39658;51.090;-1.786;2022-08-02T12:48:30;100945.63;;;23.72;66.86
53262;BME280;39658;51.090;-1.786;2022-08-02T12:50:58;100949.16;;;23.85;66.11
53262;BME280;39658;51.090;-1.786;2022-08-02T12:53:30;100960.03;;;23.96;66.35